createdAt,value
2022-12-18T00:00:48.705Z,1026.88
2022-12-18T00:01:48.752Z,1026.87
2022-12-18T00:02:48.807Z,1026.89
2022-12-18T00:03:48.792Z,1026.92
2022-12-18T00:04:48.652Z,1026.92
2022-12-18T00:05:48.644Z,1026.95
2022-12-18T00:06:48.644Z,1026.92
2022-12-18T00:07:48.629Z,1026.96
2022-12-18T00:08:48.617Z,1026.95
2022-12-18T00:09:48.609Z,1027.02
2022-12-18T00:10:48.600Z,1027.06
2022-12-18T00:11:48.600Z,1026.99
2022-12-18T00:12:48.575Z,1027.00
2022-12-18T00:13:48.570Z,1027.05
2022-12-18T00:14:48.556Z,1027.08
2022-12-18T00:15:48.609Z,1027.07
2022-12-18T00:16:48.538Z,1027.07
2022-12-18T00:17:48.518Z,1027.04
2022-12-18T00:18:48.518Z,1027.04
2022-12-18T00:19:48.498Z,1027.05
2022-12-18T00:20:48.493Z,1027.04
2022-12-18T00:21:48.500Z,1027.07
2022-12-18T00:22:48.474Z,1027.03
2022-12-18T00:23:48.464Z,1027.03
2022-12-18T00:24:48.456Z,1027.02
2022-12-18T00:25:48.434Z,1027.02
2022-12-18T00:26:48.445Z,1026.99
2022-12-18T00:27:48.414Z,1026.97
2022-12-18T00:28:48.402Z,1026.98
2022-12-18T00:29:48.387Z,1026.93
2022-12-18T00:30:48.383Z,1026.98
2022-12-18T00:31:48.596Z,1027.07
2022-12-18T00:32:48.386Z,1026.99
2022-12-18T00:33:48.352Z,1026.97
2022-12-18T00:34:48.337Z,1026.97
2022-12-18T00:35:48.337Z,1026.93
2022-12-18T00:36:48.324Z,1026.94
2022-12-18T00:37:48.313Z,1026.95
2022-12-18T00:38:48.308Z,1026.91
2022-12-18T00:39:48.292Z,1026.91
2022-12-18T00:40:48.287Z,1026.89
2022-12-18T00:41:48.278Z,1026.93
2022-12-18T00:42:48.262Z,1026.92
2022-12-18T00:43:48.257Z,1026.92
2022-12-18T00:44:48.235Z,1026.91
2022-12-18T00:45:48.274Z,1026.91
2022-12-18T00:46:48.233Z,1026.89
2022-12-18T00:47:48.232Z,1026.99
2022-12-18T00:48:48.191Z,1026.98
2022-12-18T00:49:48.198Z,1026.96
2022-12-18T00:50:48.183Z,1026.89
2022-12-18T00:51:48.163Z,1026.97
2022-12-18T00:52:48.166Z,1026.90
2022-12-18T00:53:48.138Z,1026.93
2022-12-18T00:54:48.151Z,1026.87
2022-12-18T00:55:48.130Z,1026.85
2022-12-18T00:56:49.973Z,1026.91
2022-12-18T00:57:48.107Z,1026.84
2022-12-18T00:58:48.087Z,1026.84
2022-12-18T00:59:48.093Z,1026.85
2022-12-18T01:00:48.145Z,1026.92
2022-12-18T01:01:48.354Z,1026.87
2022-12-18T01:02:48.169Z,1026.87
2022-12-18T01:03:48.060Z,1026.85
2022-12-18T01:04:48.041Z,1026.94
2022-12-18T01:05:48.035Z,1027.01
2022-12-18T01:06:48.010Z,1026.98
2022-12-18T01:07:47.994Z,1026.95
2022-12-18T01:08:47.990Z,1026.99
2022-12-18T01:09:47.972Z,1026.99
2022-12-18T01:10:47.958Z,1027.00
2022-12-18T01:11:47.969Z,1027.01
2022-12-18T01:12:47.941Z,1027.01
2022-12-18T01:13:47.931Z,1027.03
2022-12-18T01:14:47.920Z,1026.99
2022-12-18T01:15:47.920Z,1027.02
2022-12-18T01:16:47.992Z,1027.01
2022-12-18T01:17:47.897Z,1027.06
2022-12-18T01:18:47.886Z,1027.07
2022-12-18T01:19:47.891Z,1027.07
2022-12-18T01:20:47.868Z,1027.13
2022-12-18T01:21:47.877Z,1027.14
2022-12-18T01:22:47.867Z,1027.18
2022-12-18T01:23:47.831Z,1027.20
2022-12-18T01:24:47.816Z,1027.18
2022-12-18T01:25:47.804Z,1027.23
2022-12-18T01:26:47.801Z,1027.24
2022-12-18T01:27:47.807Z,1027.24
2022-12-18T01:28:47.783Z,1027.26
2022-12-18T01:29:47.767Z,1027.27
2022-12-18T01:30:47.754Z,1027.25
2022-12-18T01:31:47.825Z,1027.26
2022-12-18T01:32:47.753Z,1027.25
2022-12-18T01:33:47.722Z,1027.23
2022-12-18T01:34:47.728Z,1027.25
2022-12-18T01:35:47.710Z,1027.28
2022-12-18T01:36:47.698Z,1027.22
2022-12-18T01:37:47.688Z,1027.21
2022-12-18T01:38:47.690Z,1027.15
2022-12-18T01:39:47.658Z,1027.25
2022-12-18T01:40:47.649Z,1027.16
2022-12-18T01:41:47.642Z,1027.17
2022-12-18T01:42:47.623Z,1027.19
2022-12-18T01:43:47.627Z,1027.18
2022-12-18T01:44:47.615Z,1027.21
2022-12-18T01:45:47.672Z,1027.21
2022-12-18T01:46:47.588Z,1027.21
2022-12-18T01:47:47.581Z,1027.22
2022-12-18T01:48:47.570Z,1027.21
2022-12-18T01:49:47.570Z,1027.24
2022-12-18T01:50:47.549Z,1027.26
2022-12-18T01:51:47.542Z,1027.31
2022-12-18T01:52:47.525Z,1027.32
2022-12-18T01:53:47.518Z,1027.31
2022-12-18T01:54:47.547Z,1027.31
2022-12-18T01:55:47.515Z,1027.32
2022-12-18T01:56:47.485Z,1027.29
2022-12-18T01:57:47.494Z,1027.28
2022-12-18T01:58:47.472Z,1027.32
2022-12-18T01:59:47.451Z,1027.31
2022-12-18T02:00:47.511Z,1027.28
2022-12-18T02:01:47.598Z,1027.26
2022-12-18T02:02:47.547Z,1027.22
2022-12-18T02:03:47.419Z,1027.31
2022-12-18T02:04:49.568Z,1027.33
2022-12-18T02:05:47.390Z,1027.29
2022-12-18T02:06:47.396Z,1027.35
2022-12-18T02:07:47.375Z,1027.35
2022-12-18T02:08:47.355Z,1027.36
2022-12-18T02:09:47.379Z,1027.28
2022-12-18T02:10:47.334Z,1027.36
2022-12-18T02:11:47.341Z,1027.33
2022-12-18T02:12:47.438Z,1027.38
2022-12-18T02:13:47.311Z,1027.36
2022-12-18T02:14:47.298Z,1027.35
2022-12-18T02:15:47.282Z,1027.36
2022-12-18T02:16:47.335Z,1027.37
2022-12-18T02:17:47.290Z,1027.40
2022-12-18T02:18:47.252Z,1027.41
2022-12-18T02:19:47.243Z,1027.37
2022-12-18T02:20:47.230Z,1027.42
2022-12-18T02:21:47.229Z,1027.43
2022-12-18T02:22:47.207Z,1027.42
2022-12-18T02:23:47.211Z,1027.40
2022-12-18T02:24:47.207Z,1027.44
2022-12-18T02:25:47.178Z,1027.40
2022-12-18T02:26:47.167Z,1027.40
2022-12-18T02:27:47.168Z,1027.40
2022-12-18T02:28:47.264Z,1027.43
2022-12-18T02:29:48.726Z,1027.46
2022-12-18T02:30:47.197Z,1027.42
2022-12-18T02:31:47.113Z,1027.41
2022-12-18T02:32:47.108Z,1027.45
2022-12-18T02:33:47.101Z,1027.45
2022-12-18T02:34:47.099Z,1027.45
2022-12-18T02:35:47.080Z,1027.49
2022-12-18T02:36:47.068Z,1027.52
2022-12-18T02:37:47.064Z,1027.58
2022-12-18T02:38:47.047Z,1027.61
2022-12-18T02:39:47.052Z,1027.61
2022-12-18T02:40:47.027Z,1027.66
2022-12-18T02:41:47.029Z,1027.67
2022-12-18T02:42:47.006Z,1027.60
2022-12-18T02:43:46.991Z,1027.60
2022-12-18T02:44:47.095Z,1027.64
2022-12-18T02:45:46.995Z,1027.60
2022-12-18T02:46:46.963Z,1027.63
2022-12-18T02:47:46.977Z,1027.56
2022-12-18T02:48:46.945Z,1027.59
2022-12-18T02:49:46.935Z,1027.59
2022-12-18T02:50:46.917Z,1027.62
2022-12-18T02:51:46.914Z,1027.56
2022-12-18T02:52:46.921Z,1027.58
2022-12-18T02:53:46.883Z,1027.59
2022-12-18T02:54:46.882Z,1027.60
2022-12-18T02:55:46.864Z,1027.63
2022-12-18T02:56:46.858Z,1027.60
2022-12-18T02:57:46.865Z,1027.57
2022-12-18T02:58:46.831Z,1027.58
2022-12-18T02:59:46.831Z,1027.59
2022-12-18T03:00:46.927Z,1027.59
2022-12-18T03:01:46.974Z,1027.55
2022-12-18T03:02:46.938Z,1027.55
2022-12-18T03:03:46.779Z,1027.59
2022-12-18T03:04:46.776Z,1027.60
2022-12-18T03:05:46.766Z,1027.53
2022-12-18T03:06:46.754Z,1027.48
2022-12-18T03:07:46.762Z,1027.53
2022-12-18T03:08:46.728Z,1027.49
2022-12-18T03:09:46.716Z,1027.54
2022-12-18T03:10:46.704Z,1027.56
2022-12-18T03:11:46.702Z,1027.59
2022-12-18T03:12:46.690Z,1027.55
2022-12-18T03:13:46.688Z,1027.56
2022-12-18T03:14:46.665Z,1027.60
2022-12-18T03:15:46.668Z,1027.62
2022-12-18T03:16:46.847Z,1027.63
2022-12-18T03:17:46.633Z,1027.66
2022-12-18T03:18:46.627Z,1027.68
2022-12-18T03:19:46.636Z,1027.62
2022-12-18T03:20:46.607Z,1027.61
2022-12-18T03:21:46.594Z,1027.62
2022-12-18T03:22:46.593Z,1027.57
2022-12-18T03:23:46.577Z,1027.53
2022-12-18T03:24:46.575Z,1027.62
2022-12-18T03:25:46.549Z,1027.62
2022-12-18T03:26:46.538Z,1027.65
2022-12-18T03:27:46.539Z,1027.61
2022-12-18T03:28:46.516Z,1027.59
2022-12-18T03:29:46.649Z,1027.63
2022-12-18T03:30:46.599Z,1027.65
2022-12-18T03:31:46.498Z,1027.64
2022-12-18T03:32:55.451Z,1027.62
2022-12-18T03:33:47.587Z,1027.61
2022-12-18T03:34:46.456Z,1027.60
2022-12-18T03:35:46.465Z,1027.64
2022-12-18T03:36:46.444Z,1027.66
2022-12-18T03:37:46.437Z,1027.61
2022-12-18T03:38:46.414Z,1027.67
2022-12-18T03:39:46.415Z,1027.67
2022-12-18T03:40:46.391Z,1027.62
2022-12-18T03:41:46.468Z,1027.64
2022-12-18T03:42:46.369Z,1027.61
2022-12-18T03:43:46.367Z,1027.58
2022-12-18T03:44:46.356Z,1027.51
2022-12-18T03:45:46.389Z,1027.53
2022-12-18T03:46:46.356Z,1027.54
2022-12-18T03:47:46.321Z,1027.52
2022-12-18T03:48:46.312Z,1027.58
2022-12-18T03:49:46.412Z,1027.62
2022-12-18T03:50:46.307Z,1027.61
2022-12-18T03:51:46.277Z,1027.64
2022-12-18T03:52:46.275Z,1027.62
2022-12-18T03:53:46.282Z,1027.65
2022-12-18T03:54:46.254Z,1027.66
2022-12-18T03:55:46.238Z,1027.69
2022-12-18T03:56:46.226Z,1027.67
2022-12-18T03:57:46.222Z,1027.64
2022-12-18T03:58:46.237Z,1027.70
2022-12-18T03:59:46.198Z,1027.71
2022-12-18T04:00:46.192Z,1027.64
2022-12-18T04:01:46.332Z,1027.63
2022-12-18T04:02:46.316Z,1027.65
2022-12-18T04:03:46.396Z,1027.60
2022-12-18T04:04:46.164Z,1027.69
2022-12-18T04:05:46.249Z,1027.66
2022-12-18T04:06:46.121Z,1027.65
2022-12-18T04:07:46.111Z,1027.68
2022-12-18T04:08:46.119Z,1027.69
2022-12-18T04:09:46.126Z,1027.71
2022-12-18T04:10:46.081Z,1027.71
2022-12-18T04:11:46.067Z,1027.72
2022-12-18T04:12:46.065Z,1027.74
2022-12-18T04:13:46.053Z,1027.72
2022-12-18T04:14:46.044Z,1027.74
2022-12-18T04:15:46.073Z,1027.75
2022-12-18T04:16:46.023Z,1027.75
2022-12-18T04:17:46.004Z,1027.73
2022-12-18T04:18:46.000Z,1027.75
2022-12-18T04:19:45.997Z,1027.77
2022-12-18T04:20:45.973Z,1027.82
2022-12-18T04:21:46.086Z,1027.82
2022-12-18T04:22:45.962Z,1027.87
2022-12-18T04:23:45.942Z,1027.85
2022-12-18T04:24:45.946Z,1027.86
2022-12-18T04:25:45.932Z,1027.85
2022-12-18T04:26:45.910Z,1027.88
2022-12-18T04:27:45.911Z,1027.85
2022-12-18T04:28:45.890Z,1027.87
2022-12-18T04:29:45.878Z,1027.83
2022-12-18T04:30:45.890Z,1027.84
2022-12-18T04:31:45.864Z,1027.86
2022-12-18T04:32:51.933Z,1027.86
2022-12-18T04:33:46.846Z,1027.94
2022-12-18T04:34:45.850Z,1027.88
2022-12-18T04:35:45.829Z,1027.91
2022-12-18T04:36:45.823Z,1027.87
2022-12-18T04:37:45.912Z,1027.87
2022-12-18T04:38:45.793Z,1027.87
2022-12-18T04:39:45.784Z,1027.92
2022-12-18T04:40:45.772Z,1027.96
2022-12-18T04:41:45.774Z,1027.97
2022-12-18T04:42:45.832Z,1027.97
2022-12-18T04:43:55.808Z,1027.95
2022-12-18T04:44:45.726Z,1027.99
2022-12-18T04:45:45.714Z,1028.04
2022-12-18T04:46:45.750Z,1028.01
2022-12-18T04:47:45.699Z,1027.97
2022-12-18T04:48:45.691Z,1027.95
2022-12-18T04:49:45.667Z,1027.96
2022-12-18T04:50:45.662Z,1027.93
2022-12-18T04:51:45.650Z,1027.97
2022-12-18T04:52:45.649Z,1027.94
2022-12-18T04:53:45.765Z,1027.91
2022-12-18T04:54:45.616Z,1027.95
2022-12-18T04:55:45.608Z,1027.90
2022-12-18T04:56:45.597Z,1027.83
2022-12-18T04:57:45.601Z,1027.90
2022-12-18T04:58:45.612Z,1027.87
2022-12-18T04:59:45.572Z,1027.86
2022-12-18T05:00:45.560Z,1027.88
2022-12-18T05:01:45.685Z,1027.89
2022-12-18T05:02:45.633Z,1027.95
2022-12-18T05:03:45.880Z,1027.98
2022-12-18T05:04:45.522Z,1028.02
2022-12-18T05:05:45.512Z,1028.00
2022-12-18T05:06:45.498Z,1028.07
2022-12-18T05:07:45.478Z,1028.07
2022-12-18T05:08:45.482Z,1028.11
2022-12-18T05:09:45.599Z,1028.12
2022-12-18T05:10:45.449Z,1028.10
2022-12-18T05:11:45.443Z,1028.13
2022-12-18T05:12:45.443Z,1028.11
2022-12-18T05:13:45.422Z,1028.17
2022-12-18T05:14:45.407Z,1028.19
2022-12-18T05:15:45.466Z,1028.15
2022-12-18T05:16:45.393Z,1028.18
2022-12-18T05:17:45.383Z,1028.16
2022-12-18T05:18:45.371Z,1028.11
2022-12-18T05:19:45.367Z,1028.08
2022-12-18T05:20:45.354Z,1028.08
2022-12-18T05:21:45.356Z,1028.15
2022-12-18T05:22:45.324Z,1028.14
2022-12-18T05:23:45.321Z,1028.19
2022-12-18T05:24:45.300Z,1028.28
2022-12-18T05:25:45.413Z,1028.23
2022-12-18T05:26:45.290Z,1028.30
2022-12-18T05:27:45.291Z,1028.29
2022-12-18T05:28:45.260Z,1028.36
2022-12-18T05:29:45.258Z,1028.38
2022-12-18T05:30:45.240Z,1028.42
2022-12-18T05:31:45.304Z,1028.40
2022-12-18T05:32:45.224Z,1028.39
2022-12-18T05:33:45.216Z,1028.43
2022-12-18T05:34:45.199Z,1028.41
2022-12-18T05:35:45.197Z,1028.45
2022-12-18T05:36:45.198Z,1028.43
2022-12-18T05:37:45.170Z,1028.38
2022-12-18T05:38:45.160Z,1028.46
2022-12-18T05:39:45.147Z,1028.39
2022-12-18T05:40:45.135Z,1028.42
2022-12-18T05:41:45.273Z,1028.41
2022-12-18T05:42:45.115Z,1028.40
2022-12-18T05:43:45.104Z,1028.40
2022-12-18T05:44:45.095Z,1028.35
2022-12-18T05:45:45.091Z,1028.33
2022-12-18T05:46:45.172Z,1028.30
2022-12-18T05:47:45.070Z,1028.34
2022-12-18T05:48:45.058Z,1028.35
2022-12-18T05:49:45.049Z,1028.34
2022-12-18T05:50:45.032Z,1028.33
2022-12-18T05:51:45.020Z,1028.37
2022-12-18T05:52:45.054Z,1028.41
2022-12-18T05:53:45.007Z,1028.44
2022-12-18T05:54:44.994Z,1028.42
2022-12-18T05:55:44.985Z,1028.44
2022-12-18T05:56:48.640Z,1028.43
2022-12-18T05:57:45.086Z,1028.42
2022-12-18T05:58:44.962Z,1028.47
2022-12-18T05:59:44.935Z,1028.50
2022-12-18T06:00:44.946Z,1028.44
2022-12-18T06:01:45.024Z,1028.47
2022-12-18T06:02:44.999Z,1028.45
2022-12-18T06:03:45.534Z,1028.46
2022-12-18T06:04:44.883Z,1028.51
2022-12-18T06:05:44.881Z,1028.58
2022-12-18T06:06:44.870Z,1028.60
2022-12-18T06:07:44.871Z,1028.58
2022-12-18T06:08:46.726Z,1028.62
2022-12-18T06:09:44.851Z,1028.57
2022-12-18T06:10:44.824Z,1028.61
2022-12-18T06:11:44.808Z,1028.60
2022-12-18T06:12:44.806Z,1028.64
2022-12-18T06:13:44.916Z,1028.65
2022-12-18T06:14:44.800Z,1028.64
2022-12-18T06:15:44.770Z,1028.65
2022-12-18T06:16:44.768Z,1028.61
2022-12-18T06:17:44.758Z,1028.67
2022-12-18T06:18:44.747Z,1028.63
2022-12-18T06:19:44.747Z,1028.67
2022-12-18T06:20:44.738Z,1028.66
2022-12-18T06:21:44.704Z,1028.68
2022-12-18T06:22:44.697Z,1028.74
2022-12-18T06:23:44.687Z,1028.74
2022-12-18T06:24:44.675Z,1028.70
2022-12-18T06:25:44.676Z,1028.74
2022-12-18T06:26:44.680Z,1028.81
2022-12-18T06:27:44.651Z,1028.76
2022-12-18T06:28:44.636Z,1028.74
2022-12-18T06:29:44.738Z,1028.74
2022-12-18T06:30:44.613Z,1028.72
2022-12-18T06:31:44.676Z,1028.69
2022-12-18T06:32:44.608Z,1028.79
2022-12-18T06:33:44.588Z,1028.78
2022-12-18T06:34:44.575Z,1028.80
2022-12-18T06:35:44.558Z,1028.83
2022-12-18T06:36:44.573Z,1028.87
2022-12-18T06:37:44.545Z,1028.94
2022-12-18T06:38:44.536Z,1028.94
2022-12-18T06:39:44.532Z,1028.99
2022-12-18T06:40:44.522Z,1028.93
2022-12-18T06:41:44.505Z,1029.01
2022-12-18T06:42:44.505Z,1029.00
2022-12-18T06:43:44.479Z,1029.00
2022-12-18T06:44:44.462Z,1029.03
2022-12-18T06:45:44.633Z,1029.00
2022-12-18T06:46:44.457Z,1029.02
2022-12-18T06:47:44.460Z,1028.95
2022-12-18T06:48:44.434Z,1028.99
2022-12-18T06:49:44.426Z,1028.96
2022-12-18T06:50:44.403Z,1028.99
2022-12-18T06:51:44.388Z,1029.00
2022-12-18T06:52:44.387Z,1029.02
2022-12-18T06:53:44.400Z,1029.08
2022-12-18T06:54:44.381Z,1029.09
2022-12-18T06:55:44.351Z,1029.15
2022-12-18T06:56:44.340Z,1029.17
2022-12-18T06:57:44.339Z,1029.24
2022-12-18T06:58:44.334Z,1029.24
2022-12-18T06:59:44.319Z,1029.26
2022-12-18T07:00:44.345Z,1029.28
2022-12-18T07:01:44.623Z,1029.24
2022-12-18T07:02:44.376Z,1029.31
2022-12-18T07:03:45.083Z,1029.24
2022-12-18T07:04:44.269Z,1029.21
2022-12-18T07:05:44.280Z,1029.21
2022-12-18T07:06:44.241Z,1029.21
2022-12-18T07:07:44.222Z,1029.20
2022-12-18T07:08:44.217Z,1029.14
2022-12-18T07:09:44.207Z,1029.10
2022-12-18T07:10:47.425Z,1029.14
2022-12-18T07:11:44.387Z,1029.09
2022-12-18T07:12:44.183Z,1029.11
2022-12-18T07:13:44.212Z,1029.10
2022-12-18T07:14:44.153Z,1029.16
2022-12-18T07:15:44.143Z,1029.14
2022-12-18T07:16:44.215Z,1029.10
2022-12-18T07:17:44.230Z,1029.15
2022-12-18T07:18:44.115Z,1029.14
2022-12-18T07:19:44.103Z,1029.16
2022-12-18T07:20:44.112Z,1029.15
2022-12-18T07:21:44.101Z,1029.20
2022-12-18T07:22:44.079Z,1029.21
2022-12-18T07:23:44.066Z,1029.19
2022-12-18T07:24:44.061Z,1029.20
2022-12-18T07:25:44.042Z,1029.25
2022-12-18T07:26:44.027Z,1029.24
2022-12-18T07:27:44.031Z,1029.20
2022-12-18T07:28:44.019Z,1029.21
2022-12-18T07:29:44.056Z,1029.21
2022-12-18T07:30:43.996Z,1029.20
2022-12-18T07:31:44.063Z,1029.25
2022-12-18T07:32:43.970Z,1029.15
2022-12-18T07:33:44.091Z,1029.19
2022-12-18T07:34:43.967Z,1029.20
2022-12-18T07:35:43.936Z,1029.20
2022-12-18T07:36:43.938Z,1029.23
2022-12-18T07:37:43.914Z,1029.22
2022-12-18T07:38:43.930Z,1029.19
2022-12-18T07:39:43.903Z,1029.21
2022-12-18T07:40:43.916Z,1029.17
2022-12-18T07:41:46.864Z,1029.12
2022-12-18T07:42:43.870Z,1029.18
2022-12-18T07:43:44.379Z,1029.18
2022-12-18T07:44:43.854Z,1029.23
2022-12-18T07:45:43.902Z,1029.30
2022-12-18T07:46:43.846Z,1029.23
2022-12-18T07:47:43.815Z,1029.31
2022-12-18T07:48:44.662Z,1029.14
2022-12-18T07:49:43.906Z,1029.17
2022-12-18T07:50:43.785Z,1029.17
2022-12-18T07:51:43.786Z,1029.12
2022-12-18T07:52:43.771Z,1029.07
2022-12-18T07:53:44.007Z,1029.07
2022-12-18T07:54:43.749Z,1029.13
2022-12-18T07:56:17.778Z,1029.13
2022-12-18T07:56:44.734Z,1029.10
2022-12-18T07:57:54.160Z,1029.12
2022-12-18T07:58:44.698Z,1029.12
2022-12-18T07:59:43.712Z,1029.06
2022-12-18T08:00:43.679Z,1029.14
2022-12-18T08:01:43.794Z,1029.17
2022-12-18T08:02:43.776Z,1029.19
2022-12-18T08:03:43.656Z,1029.21
2022-12-18T08:04:43.641Z,1029.19
2022-12-18T08:05:43.748Z,1029.24
2022-12-18T08:06:47.592Z,1029.29
2022-12-18T08:07:43.610Z,1029.22
2022-12-18T08:08:43.598Z,1029.31
2022-12-18T08:09:43.601Z,1029.23
2022-12-18T08:10:43.583Z,1029.28
2022-12-18T08:11:43.576Z,1029.23
2022-12-18T08:12:43.562Z,1029.24
2022-12-18T08:13:43.767Z,1029.29
2022-12-18T08:14:43.529Z,1029.26
2022-12-18T08:15:43.554Z,1029.23
2022-12-18T08:16:43.564Z,1029.20
2022-12-18T08:17:43.511Z,1029.26
2022-12-18T08:18:43.503Z,1029.23
2022-12-18T08:19:43.494Z,1029.27
2022-12-18T08:20:43.478Z,1029.33
2022-12-18T08:21:43.622Z,1029.34
2022-12-18T08:22:43.459Z,1029.40
2022-12-18T08:23:43.856Z,1029.35
2022-12-18T08:24:43.438Z,1029.34
2022-12-18T08:25:43.421Z,1029.32
2022-12-18T08:26:51.837Z,1029.39
2022-12-18T08:27:44.403Z,1029.30
2022-12-18T08:28:43.390Z,1029.42
2022-12-18T08:29:43.376Z,1029.43
2022-12-18T08:30:43.445Z,1029.40
2022-12-18T08:31:43.460Z,1029.37
2022-12-18T08:32:43.374Z,1029.41
2022-12-18T08:33:43.865Z,1029.38
2022-12-18T08:34:43.330Z,1029.39
2022-12-18T08:35:45.953Z,1029.44
2022-12-18T08:36:43.321Z,1029.38
2022-12-18T08:37:43.416Z,1029.43
2022-12-18T08:38:43.300Z,1029.44
2022-12-18T08:39:43.280Z,1029.42
2022-12-18T08:40:43.273Z,1029.47
2022-12-18T08:41:43.252Z,1029.45
2022-12-18T08:42:43.255Z,1029.47
2022-12-18T08:43:43.444Z,1029.52
2022-12-18T08:44:43.226Z,1029.51
2022-12-18T08:45:43.266Z,1029.55
2022-12-18T08:46:43.201Z,1029.56
2022-12-18T08:47:43.194Z,1029.60
2022-12-18T08:48:43.198Z,1029.52
2022-12-18T08:49:43.169Z,1029.62
2022-12-18T08:50:43.165Z,1029.51
2022-12-18T08:51:43.154Z,1029.54
2022-12-18T08:52:43.150Z,1029.57
2022-12-18T08:53:43.614Z,1029.56
2022-12-18T08:54:43.128Z,1029.56
2022-12-18T08:55:48.578Z,1029.69
2022-12-18T08:56:44.094Z,1029.68
2022-12-18T08:57:43.093Z,1029.72
2022-12-18T08:58:43.080Z,1029.74
2022-12-18T08:59:43.071Z,1029.76
2022-12-18T09:00:43.076Z,1029.78
2022-12-18T09:01:43.175Z,1029.73
2022-12-18T09:02:43.202Z,1029.70
2022-12-18T09:03:43.647Z,1029.68
2022-12-18T09:04:43.035Z,1029.71
2022-12-18T09:05:43.004Z,1029.64
2022-12-18T09:06:42.998Z,1029.71
2022-12-18T09:07:42.991Z,1029.70
2022-12-18T09:08:43.338Z,1029.72
2022-12-18T09:09:43.074Z,1029.70
2022-12-18T09:10:43.471Z,1029.73
2022-12-18T09:11:42.949Z,1029.81
2022-12-18T09:12:42.936Z,1029.82
2022-12-18T09:13:43.243Z,1029.78
2022-12-18T09:14:42.905Z,1029.83
2022-12-18T09:15:42.911Z,1029.79
2022-12-18T09:16:42.939Z,1029.78
2022-12-18T09:17:42.897Z,1029.82
2022-12-18T09:18:43.399Z,1029.86
2022-12-18T09:19:42.855Z,1029.87
2022-12-18T09:20:42.863Z,1029.93
2022-12-18T09:21:47.743Z,1029.86
2022-12-18T09:22:43.833Z,1029.86
2022-12-18T09:23:42.821Z,1029.86
2022-12-18T09:24:42.799Z,1029.83
2022-12-18T09:25:42.899Z,1029.79
2022-12-18T09:26:43.658Z,1029.81
2022-12-18T09:27:42.773Z,1029.83
2022-12-18T09:28:43.231Z,1029.79
2022-12-18T09:29:42.747Z,1029.81
2022-12-18T09:30:42.813Z,1029.82
2022-12-18T09:31:42.748Z,1029.78
2022-12-18T09:32:42.738Z,1029.87
2022-12-18T09:33:42.718Z,1029.87
2022-12-18T09:34:42.713Z,1029.90
2022-12-18T09:35:42.685Z,1029.83
2022-12-18T09:36:42.683Z,1029.83
2022-12-18T09:37:42.680Z,1029.85
2022-12-18T09:38:43.118Z,1029.79
2022-12-18T09:39:42.649Z,1029.83
2022-12-18T09:40:42.651Z,1029.78
2022-12-18T09:41:42.738Z,1029.71
2022-12-18T09:42:42.622Z,1029.72
2022-12-18T09:43:42.602Z,1029.74
2022-12-18T09:44:45.338Z,1029.68
2022-12-18T09:45:42.599Z,1029.62
2022-12-18T09:46:42.659Z,1029.66
2022-12-18T09:47:42.561Z,1029.69
2022-12-18T09:48:42.961Z,1029.69
2022-12-18T09:49:42.557Z,1029.72
2022-12-18T09:50:42.533Z,1029.63
2022-12-18T09:51:42.520Z,1029.61
2022-12-18T09:52:42.509Z,1029.60
2022-12-18T09:53:42.545Z,1029.62
2022-12-18T09:54:42.492Z,1029.54
2022-12-18T09:55:42.496Z,1029.55
2022-12-18T09:56:42.476Z,1029.56
2022-12-18T09:57:42.574Z,1029.53
2022-12-18T09:58:42.894Z,1029.44
2022-12-18T09:59:42.435Z,1029.38
2022-12-18T10:00:42.439Z,1029.40
2022-12-18T10:01:44.646Z,1029.37
2022-12-18T10:02:42.567Z,1029.35
2022-12-18T10:03:42.405Z,1029.22
2022-12-18T10:04:42.456Z,1029.26
2022-12-18T10:05:42.440Z,1029.24
2022-12-18T10:06:42.367Z,1029.21
2022-12-18T10:07:42.369Z,1029.14
2022-12-18T10:08:42.917Z,1029.17
2022-12-18T10:09:42.347Z,1029.18
2022-12-18T10:10:42.340Z,1029.16
2022-12-18T10:11:42.315Z,1029.17
2022-12-18T10:12:42.335Z,1029.22
2022-12-18T10:13:42.404Z,1029.10
2022-12-18T10:14:42.306Z,1029.17
2022-12-18T10:15:42.328Z,1029.14
2022-12-18T10:16:42.278Z,1029.13
2022-12-18T10:17:42.258Z,1029.18
2022-12-18T10:18:42.721Z,1029.15
2022-12-18T10:19:42.238Z,1029.18
2022-12-18T10:20:42.248Z,1029.08
2022-12-18T10:21:42.214Z,1029.10
2022-12-18T10:22:42.203Z,1029.18
2022-12-18T10:23:46.611Z,1029.18
2022-12-18T10:24:43.180Z,1029.23
2022-12-18T10:25:42.177Z,1029.25
2022-12-18T10:26:42.154Z,1029.20
2022-12-18T10:27:42.143Z,1029.23
2022-12-18T10:28:42.731Z,1029.21
2022-12-18T10:29:48.104Z,1029.13
2022-12-18T10:30:43.321Z,1029.16
2022-12-18T10:31:42.157Z,1029.12
2022-12-18T10:32:42.095Z,1029.15
2022-12-18T10:33:42.361Z,1029.10
2022-12-18T10:34:42.073Z,1029.09
2022-12-18T10:35:42.070Z,1029.07
2022-12-18T10:36:42.057Z,1029.10
2022-12-18T10:37:42.047Z,1029.08
2022-12-18T10:38:42.556Z,1029.06
2022-12-18T10:39:42.027Z,1029.05
2022-12-18T10:40:42.012Z,1029.01
2022-12-18T10:41:41.998Z,1029.02
2022-12-18T10:42:41.987Z,1029.00
2022-12-18T10:43:41.986Z,1028.96
2022-12-18T10:44:50.888Z,1028.97
2022-12-18T10:45:41.963Z,1028.99
2022-12-18T10:46:42.130Z,1028.94
2022-12-18T10:47:41.944Z,1028.94
2022-12-18T10:48:42.546Z,1028.93
2022-12-18T10:49:41.954Z,1028.90
2022-12-18T10:51:09.790Z,1028.88
2022-12-18T10:51:42.896Z,1028.89
2022-12-18T10:52:45.016Z,1028.85
2022-12-18T10:53:43.013Z,1028.93
2022-12-18T10:54:41.918Z,1028.81
2022-12-18T10:55:41.894Z,1028.82
2022-12-18T10:56:41.859Z,1028.82
2022-12-18T10:57:41.844Z,1028.77
2022-12-18T10:58:42.359Z,1028.82
2022-12-18T10:59:41.896Z,1028.84
2022-12-18T11:00:41.804Z,1028.77
2022-12-18T11:01:41.861Z,1028.77
2022-12-18T11:02:42.152Z,1028.77
2022-12-18T11:03:41.937Z,1028.75
2022-12-18T11:04:41.767Z,1028.78
2022-12-18T11:05:41.783Z,1028.74
2022-12-18T11:06:41.746Z,1028.71
2022-12-18T11:07:41.748Z,1028.72
2022-12-18T11:08:42.150Z,1028.69
2022-12-18T11:09:41.732Z,1028.64
2022-12-18T11:10:41.720Z,1028.72
2022-12-18T11:11:41.702Z,1028.66
2022-12-18T11:12:41.713Z,1028.73
2022-12-18T11:13:41.701Z,1028.71
2022-12-18T11:14:46.587Z,1028.63
2022-12-18T11:15:41.711Z,1028.74
2022-12-18T11:16:46.239Z,1028.70
2022-12-18T11:17:42.886Z,1028.74
2022-12-18T11:18:42.286Z,1028.78
2022-12-18T11:19:41.615Z,1028.79
2022-12-18T11:20:41.605Z,1028.81
2022-12-18T11:21:41.599Z,1028.77
2022-12-18T11:22:41.587Z,1028.75
2022-12-18T11:23:41.572Z,1028.66
2022-12-18T11:24:41.556Z,1028.66
2022-12-18T11:25:41.567Z,1028.70
2022-12-18T11:26:41.536Z,1028.68
2022-12-18T11:27:41.523Z,1028.77
2022-12-18T11:28:42.051Z,1028.74
2022-12-18T11:29:46.438Z,1028.68
2022-12-18T11:30:42.494Z,1028.75
2022-12-18T11:31:41.593Z,1028.68
2022-12-18T11:32:41.517Z,1028.77
2022-12-18T11:33:53.174Z,1028.71
2022-12-18T11:34:42.600Z,1028.73
2022-12-18T11:35:41.447Z,1028.69
2022-12-18T11:36:41.449Z,1028.64
2022-12-18T11:37:41.428Z,1028.70
2022-12-18T11:38:41.747Z,1028.67
2022-12-18T11:39:41.420Z,1028.65
2022-12-18T11:40:41.740Z,1028.64
2022-12-18T11:41:41.383Z,1028.66
2022-12-18T11:42:41.373Z,1028.66
2022-12-18T11:43:41.361Z,1028.74
2022-12-18T11:44:41.354Z,1028.72
2022-12-18T11:45:41.361Z,1028.74
2022-12-18T11:46:41.382Z,1028.75
2022-12-18T11:47:41.327Z,1028.76
2022-12-18T11:48:41.680Z,1028.82
2022-12-18T11:49:41.302Z,1028.86
2022-12-18T11:50:41.419Z,1028.90
2022-12-18T11:51:41.270Z,1028.93
2022-12-18T11:52:41.272Z,1028.88
2022-12-18T11:53:41.257Z,1028.91
2022-12-18T11:54:41.256Z,1028.96
2022-12-18T11:55:41.226Z,1028.93
2022-12-18T11:56:41.235Z,1028.98
2022-12-18T11:57:41.218Z,1028.96
2022-12-18T11:58:41.477Z,1029.09
2022-12-18T11:59:41.188Z,1029.05
2022-12-18T12:00:41.181Z,1029.02
2022-12-18T12:01:44.275Z,1029.03
2022-12-18T12:02:41.315Z,1029.01
2022-12-18T12:03:41.577Z,1028.99
2022-12-18T12:04:41.208Z,1029.03
2022-12-18T12:05:41.126Z,1029.02